| time (UTC) | temp F | wind direction | speed MPH | gust MPH | rain 1hr in | rain 24hr in | rain mn in | humidity % | barometer mb |
| 20260507195152 | 48 | 274 | 5.0 | 14.0 | 0.00 | 0.00 | 0.00 | 48 | 1011.2 |
| 20260507194649 | 49 | 263 | 13.0 | 15.0 | 0.00 | 0.00 | 0.00 | 48 | 1011.3 |
| 20260507194145 | 49 | 261 | 5.0 | 8.0 | 0.00 | 0.00 | 0.00 | 50 | 1011.1 |
| 20260507193641 | 49 | 12 | 6.0 | 8.0 | 0.00 | 0.00 | 0.00 | 50 | 1011.1 |
| 20260507193139 | 50 | 6 | 6.0 | 10.0 | 0.00 | 0.00 | 0.00 | 50 | 1011.2 |
| 20260507192635 | 51 | 337 | 7.0 | 10.0 | 0.00 | 0.00 | 0.00 | 50 | 1011.0 |
| 20260507192132 | 49 | 245 | 3.0 | 7.0 | 0.00 | 0.00 | 0.00 | 50 | 1011.2 |
| 20260507191627 | 50 | 288 | 5.0 | 13.0 | 0.00 | 0.00 | 0.00 | 52 | 1011.1 |
| 20260507191124 | 49 | 325 | 4.0 | 8.0 | 0.00 | 0.00 | 0.00 | 51 | 1011.3 |
| 20260507190622 | 48 | 277 | 9.0 | 13.0 | 0.00 | 0.00 | 0.00 | 50 | 1011.3 |
| 20260507190121 | 47 | 234 | 11.0 | 13.0 | 0.00 | 0.00 | 0.00 | 52 | 1011.4 |
| 20260507185619 | 48 | 235 | 9.0 | 11.0 | 0.00 | 0.00 | 0.00 | 52 | 1011.4 |
| 20260507185115 | 48 | 291 | 5.0 | 8.0 | 0.00 | 0.00 | 0.00 | 55 | 1011.1 |
| 20260507184613 | 48 | 265 | 3.0 | 6.0 | 0.00 | 0.00 | 0.00 | 51 | 1011.3 |
| 20260507184111 | 47 | 217 | 3.0 | 9.0 | 0.00 | 0.00 | 0.00 | 54 | 1011.3 |
| 20260507183607 | 47 | 222 | 9.0 | 10.0 | 0.00 | 0.00 | 0.00 | 51 | 1011.5 |
| 20260507183103 | 47 | 272 | 6.0 | 9.0 | 0.00 | 0.00 | 0.00 | 57 | 1011.2 |
| 20260507182600 | 47 | 221 | 7.0 | 9.0 | 0.00 | 0.00 | 0.00 | 55 | 1011.6 |
| 20260507182055 | 46 | 308 | 5.0 | 7.0 | 0.00 | 0.00 | 0.00 | 56 | 1011.3 |
| 20260507181553 | 46 | 263 | 5.0 | 8.0 | 0.00 | 0.00 | 0.00 | 57 | 1011.7 |
| 20260507181049 | 45 | 271 | 7.0 | 8.0 | 0.00 | 0.00 | 0.00 | 56 | 1011.8 |
| 20260507180546 | 45 | 266 | 6.0 | 9.0 | 0.00 | 0.00 | 0.00 | 55 | 1011.8 |
| 20260507180043 | 45 | 277 | 12.0 | 14.0 | 0.00 | 0.00 | 0.00 | 56 | 1011.9 |
| 20260507175539 | 46 | 266 | 9.0 | 14.0 | 0.00 | 0.00 | 0.00 | 57 | 1011.8 |
| 20260507175037 | 46 | 341 | 10.0 | 13.0 | 0.00 | 0.00 | 0.00 | 57 | 1011.8 |
| 20260507174533 | 46 | 279 | 3.0 | 13.0 | 0.00 | 0.00 | 0.00 | 56 | 1011.9 |
| 20260507174031 | 46 | 255 | 5.0 | 9.0 | 0.00 | 0.00 | 0.00 | 59 | 1011.7 |
| 20260507173528 | 45 | 274 | 7.0 | 11.0 | 0.00 | 0.00 | 0.00 | 59 | 1012.1 |
| 20260507173025 | 45 | 285 | 5.0 | 9.0 | 0.00 | 0.00 | 0.00 | 60 | 1012.0 |
| 20260507172521 | 46 | 262 | 6.0 | 8.0 | 0.00 | 0.00 | 0.00 | 60 | 1012.1 |
| 20260507172018 | 46 | 237 | 5.0 | 6.0 | 0.00 | 0.00 | 0.00 | 59 | 1012.1 |
| 20260507171513 | 46 | 258 | 5.0 | 8.0 | 0.00 | 0.00 | 0.00 | 60 | 1012.2 |
| 20260507171011 | 46 | 309 | 6.0 | 8.0 | 0.00 | 0.00 | 0.00 | 58 | 1012.1 |
| 20260507170508 | 46 | 274 | 3.0 | 9.0 | 0.00 | 0.00 | 0.00 | 59 | 1012.2 |
| 20260507170004 | 45 | 259 | 3.0 | 8.0 | 0.00 | 0.00 | 0.00 | 58 | 1012.5 |
| 20260507165500 | 46 | 261 | 7.0 | 11.0 | 0.00 | 0.00 | 0.00 | 57 | 1012.1 |
| 20260507164956 | 46 | 262 | 6.0 | 8.0 | 0.00 | 0.00 | 0.00 | 54 | 1012.4 |
| 20260507164453 | 46 | 240 | 7.0 | 13.0 | 0.00 | 0.00 | 0.00 | 57 | 1012.3 |
| 20260507163950 | 46 | 242 | 6.0 | 13.0 | 0.00 | 0.00 | 0.00 | 54 | 1012.5 |
| 20260507163447 | 46 | 236 | 5.0 | 10.0 | 0.00 | 0.00 | 0.00 | 55 | 1012.3 |
| 20260507162944 | 46 | 240 | 5.0 | 7.0 | 0.00 | 0.00 | 0.00 | 55 | 1012.7 |
| 20260507162439 | 46 | 277 | 7.0 | 14.0 | 0.00 | 0.00 | 0.00 | 55 | 1012.5 |
| 20260507161937 | 46 | 227 | 12.0 | 14.0 | 0.00 | 0.00 | 0.00 | 54 | 1012.5 |
| 20260507161433 | 46 | 307 | 3.0 | 11.0 | 0.00 | 0.00 | 0.00 | 56 | 1012.7 |
| 20260507160930 | 46 | 259 | 10.0 | 13.0 | 0.00 | 0.00 | 0.00 | 55 | 1012.6 |
| 20260507160426 | 46 | 235 | 6.0 | 10.0 | 0.00 | 0.00 | 0.00 | 55 | 1012.6 |
| 20260507155921 | 46 | 264 | 9.0 | 13.0 | 0.00 | 0.00 | 0.00 | 54 | 1012.8 |
| 20260507155418 | 46 | 255 | 8.0 | 13.0 | 0.00 | 0.00 | 0.00 | 55 | 1012.9 |
| 20260507154915 | 46 | 217 | 7.0 | 14.0 | 0.00 | 0.00 | 0.00 | 55 | 1012.6 |
| 20260507154412 | 46 | 227 | 8.0 | 13.0 | 0.00 | 0.00 | 0.00 | 54 | 1012.5 |
| 20260507153909 | 46 | 270 | 5.0 | 14.0 | 0.00 | 0.00 | 0.00 | 57 | 1012.7 |
| 20260507153406 | 45 | 221 | 9.0 | 10.0 | 0.00 | 0.00 | 0.00 | 56 | 1012.6 |
| 20260507152902 | 45 | 236 | 13.0 | 15.0 | 0.00 | 0.00 | 0.00 | 55 | 1013.0 |
| 20260507152358 | 45 | 263 | 5.0 | 11.0 | 0.00 | 0.00 | 0.00 | 58 | 1012.8 |
| 20260507151854 | 45 | 274 | 8.0 | 11.0 | 0.00 | 0.00 | 0.00 | 56 | 1013.0 |
| 20260507151351 | 45 | 268 | 5.0 | 10.0 | 0.00 | 0.00 | 0.00 | 57 | 1012.9 |
| 20260507150848 | 45 | 272 | 7.0 | 10.0 | 0.00 | 0.00 | 0.00 | 58 | 1013.0 |
| 20260507150345 | 45 | 281 | 14.0 | 16.0 | 0.00 | 0.00 | 0.00 | 56 | 1013.0 |
| 20260507145840 | 46 | 219 | 10.0 | 13.0 | 0.00 | 0.00 | 0.00 | 55 | 1013.0 |
| 20260507145336 | 45 | 253 | 5.0 | 11.0 | 0.00 | 0.00 | 0.00 | 56 | 1012.9 |
| 20260507144834 | 45 | 218 | 10.0 | 15.0 | 0.00 | 0.00 | 0.00 | 57 | 1012.9 |
| 20260507144326 | 45 | 214 | 6.0 | 9.0 | 0.00 | 0.00 | 0.00 | 59 | 1012.9 |
| 20260507143822 | 45 | 253 | 6.0 | 9.0 | 0.00 | 0.00 | 0.00 | 61 | 1012.7 |
| 20260507143319 | 45 | 234 | 6.0 | 11.0 | 0.00 | 0.00 | 0.00 | 60 | 1012.9 |
| 20260507142815 | 44 | 214 | 7.0 | 8.0 | 0.00 | 0.00 | 0.00 | 59 | 1013.0 |
| 20260507142312 | 44 | 257 | 6.0 | 9.0 | 0.00 | 0.00 | 0.00 | 60 | 1012.8 |
| 20260507141809 | 44 | 197 | 11.0 | 13.0 | 0.00 | 0.00 | 0.00 | 60 | 1012.6 |
| 20260507141306 | 44 | 248 | 7.0 | 10.0 | 0.00 | 0.00 | 0.00 | 61 | 1012.8 |
| 20260507140801 | 44 | 263 | 8.0 | 11.0 | 0.00 | 0.00 | 0.00 | 64 | 1013.1 |
| 20260507140259 | 44 | 241 | 5.0 | 10.0 | 0.00 | 0.00 | 0.00 | 65 | 1013.1 |
| 20260507135756 | 44 | 242 | 7.0 | 10.0 | 0.00 | 0.00 | 0.00 | 65 | 1013.0 |
| 20260507135253 | 44 | 263 | 6.0 | 13.0 | 0.00 | 0.00 | 0.00 | 65 | 1013.0 |
| 20260507134750 | 44 | 270 | 5.0 | 8.0 | 0.00 | 0.00 | 0.00 | 64 | 1013.2 |
| 20260507134246 | 43 | 240 | 5.0 | 11.0 | 0.00 | 0.00 | 0.00 | 66 | 1012.8 |
| 20260507133742 | 44 | 242 | 6.0 | 7.0 | 0.00 | 0.00 | 0.00 | 69 | 1012.9 |
| 20260507133239 | 43 | 278 | 6.0 | 7.0 | 0.00 | 0.00 | 0.00 | 70 | 1013.0 |
| 20260507132736 | 43 | 235 | 7.0 | 9.0 | 0.00 | 0.00 | 0.00 | 70 | 1012.9 |
| 20260507132233 | 43 | 236 | 4.0 | 9.0 | 0.00 | 0.00 | 0.00 | 71 | 1013.0 |
| 20260507131730 | 43 | 258 | 5.0 | 6.0 | 0.00 | 0.00 | 0.00 | 73 | 1013.0 |
| 20260507131227 | 42 | 255 | 5.0 | 6.0 | 0.00 | 0.00 | 0.00 | 75 | 1012.9 |
| 20260507130724 | 42 | 261 | 5.0 | 8.0 | 0.00 | 0.00 | 0.00 | 74 | 1012.9 |
| 20260507130222 | 42 | 228 | 5.0 | 8.0 | 0.00 | 0.00 | 0.00 | 74 | 1013.0 |
| 20260507125720 | 42 | 223 | 6.0 | 8.0 | 0.00 | 0.00 | 0.00 | 76 | 1012.7 |
| 20260507125217 | 42 | 222 | 7.0 | 8.0 | 0.00 | 0.00 | 0.00 | 75 | 1012.8 |
| 20260507124714 | 42 | 258 | 5.0 | 10.0 | 0.00 | 0.00 | 0.00 | 75 | 1012.7 |
| 20260507124211 | 42 | 242 | 5.0 | 7.0 | 0.00 | 0.00 | 0.00 | 76 | 1012.8 |
| 20260507123709 | 42 | 238 | 3.0 | 6.0 | 0.00 | 0.00 | 0.00 | 78 | 1012.6 |
| 20260507123206 | 42 | 217 | 6.0 | 7.0 | 0.00 | 0.00 | 0.00 | 79 | 1012.8 |
| 20260507122701 | 41 | 226 | 3.0 | 6.0 | 0.00 | 0.00 | 0.00 | 80 | 1012.9 |
| 20260507122157 | 41 | 250 | 3.0 | 7.0 | 0.00 | 0.00 | 0.00 | 81 | 1012.9 |
| 20260507121653 | 40 | 233 | 5.0 | 6.0 | 0.00 | 0.00 | 0.00 | 82 | 1012.7 |
| 20260507121149 | 39 | 222 | 4.0 | 6.0 | 0.00 | 0.00 | 0.00 | 84 | 1012.6 |
| 20260507120646 | 38 | 213 | 3.0 | 5.0 | 0.00 | 0.00 | 0.00 | 86 | 1012.6 |
| 20260507120143 | 37 | 218 | 3.0 | 3.0 | 0.00 | 0.00 | 0.00 | 89 | 1012.5 |
| 20260507115639 | 37 | 216 | 1.0 | 2.0 | 0.00 | 0.00 | 0.00 | 89 | 1012.5 |
| 20260507115134 | 36 | 212 | 2.0 | 2.0 | 0.00 | 0.00 | 0.00 | 90 | 1012.5 |
| 20260507114630 | 36 | 215 | 1.0 | 2.0 | 0.00 | 0.00 | 0.00 | 91 | 1012.6 |
| 20260507114128 | 35 | 213 | 3.0 | 3.0 | 0.00 | 0.00 | 0.00 | 93 | 1012.5 |
| 20260507113625 | 34 | 221 | 2.0 | 2.0 | 0.00 | 0.00 | 0.00 | 95 | 1012.4 |
| 20260507113122 | 33 | 229 | 1.0 | 2.0 | 0.00 | 0.00 | 0.00 | 99 | 1012.7 |
| 20260507112620 | 33 | 230 | 1.0 | 1.0 | 0.00 | 0.00 | 0.00 | 99 | 1012.4 |
| 20260507112116 | 32 | 230 | 1.0 | 1.0 | 0.00 | 0.00 | 0.00 | 99 | 1012.4 |
| 20260507111614 | 32 | 230 | 1.0 | 1.0 | 0.00 | 0.00 | 0.00 | 99 | 1012.4 |
| 20260507111110 | 32 | 229 | 1.0 | 1.0 | 0.00 | 0.00 | 0.00 | 99 | 1012.4 |
| 20260507110607 | 32 | 229 | 1.0 | 1.0 | 0.00 | 0.00 | 0.00 | 99 | 1012.1 |
| 20260507110103 | 32 | 229 | 1.0 | 1.0 | 0.00 | 0.00 | 0.00 | 99 | 1012.1 |
| 20260507105600 | 32 | 229 | 1.0 | 1.0 | 0.00 | 0.00 | 0.00 | 99 | 1012.3 |
| 20260507105056 | 32 | 228 | 0.0 | 0.0 | 0.00 | 0.00 | 0.00 | 99 | 1012.2 |
| 20260507104554 | 31 | 228 | 1.0 | 2.0 | 0.00 | 0.00 | 0.00 | 99 | 1012.1 |
| 20260507104050 | 32 | 228 | 1.0 | 2.0 | 0.00 | 0.00 | 0.00 | 99 | 1012.2 |
| 20260507103546 | 31 | 229 | 1.0 | 1.0 | 0.00 | 0.00 | 0.00 | 99 | 1012.1 |
| 20260507103043 | 31 | 229 | 1.0 | 1.0 | 0.00 | 0.00 | 0.00 | 99 | 1012.2 |
| 20260507102539 | 31 | 229 | 1.0 | 2.0 | 0.00 | 0.00 | 0.00 | 99 | 1012.0 |
| 20260507102036 | 31 | 229 | 2.0 | 2.0 | 0.00 | 0.00 | 0.00 | 99 | 1012.3 |
| 20260507101531 | 31 | 229 | 0.0 | 0.0 | 0.00 | 0.00 | 0.00 | 99 | 1012.2 |
| 20260507101027 | 31 | 229 | 0.0 | 0.0 | 0.00 | 0.00 | 0.00 | 99 | 1012.0 |
| 20260507100525 | 31 | 229 | 0.0 | 0.0 | 0.00 | 0.00 | 0.00 | 99 | 1012.1 |
| 20260507100023 | 31 | 229 | 0.0 | 0.0 | 0.00 | 0.00 | 0.00 | 99 | 1012.0 |
| 20260507095521 | 31 | 229 | 0.0 | 0.0 | 0.00 | 0.00 | 0.00 | 99 | 1012.3 |
| 20260507095017 | 31 | 229 | 0.0 | 0.0 | 0.00 | 0.00 | 0.00 | 99 | 1012.2 |
| 20260507094513 | 32 | 229 | 0.0 | 0.0 | 0.00 | 0.00 | 0.00 | 99 | 1012.0 |
| 20260507094011 | 32 | 229 | 0.0 | 0.0 | 0.00 | 0.00 | 0.00 | 99 | 1012.1 |
| 20260507093508 | 31 | 229 | 0.0 | 0.0 | 0.00 | 0.00 | 0.00 | 99 | 1012.1 |
| 20260507093007 | 31 | 229 | 0.0 | 0.0 | 0.00 | 0.00 | 0.00 | 99 | 1012.0 |
| 20260507092502 | 31 | 229 | 0.0 | 0.0 | 0.00 | 0.00 | 0.00 | 99 | 1011.9 |
| 20260507092000 | 31 | 229 | 0.0 | 0.0 | 0.00 | 0.00 | 0.00 | 99 | 1012.1 |
| 20260507091456 | 32 | 229 | 0.0 | 0.0 | 0.00 | 0.00 | 0.00 | 99 | 1012.3 |
| 20260507090952 | 32 | 229 | 0.0 | 0.0 | 0.00 | 0.00 | 0.00 | 99 | 1012.2 |
| 20260507090448 | 32 | 229 | 0.0 | 0.0 | 0.00 | 0.00 | 0.00 | 99 | 1012.3 |
| 20260507085945 | 32 | 229 | 0.0 | 0.0 | 0.00 | 0.00 | 0.00 | 99 | 1012.5 |
| 20260507085442 | 33 | 229 | 0.0 | 0.0 | 0.00 | 0.00 | 0.00 | 99 | 1012.4 |
| 20260507084938 | 33 | 229 | 0.0 | 0.0 | 0.00 | 0.00 | 0.00 | 99 | 1012.2 |
| 20260507084435 | 33 | 229 | 0.0 | 0.0 | 0.00 | 0.00 | 0.00 | 98 | 1012.3 |
| 20260507083932 | 34 | 229 | 0.0 | 0.0 | 0.00 | 0.00 | 0.00 | 98 | 1012.4 |
| 20260507083429 | 33 | 229 | 0.0 | 0.0 | 0.00 | 0.00 | 0.00 | 98 | 1012.4 |
| 20260507082925 | 34 | 229 | 0.0 | 0.0 | 0.00 | 0.00 | 0.00 | 98 | 1012.3 |
| 20260507082421 | 34 | 229 | 0.0 | 0.0 | 0.00 | 0.00 | 0.00 | 98 | 1012.3 |
| 20260507081918 | 35 | 229 | 0.0 | 0.0 | 0.00 | 0.00 | 0.00 | 98 | 1012.5 |
| 20260507081414 | 35 | 229 | 0.0 | 0.0 | 0.00 | 0.00 | 0.00 | 98 | 1012.4 |
| 20260507080911 | 35 | 229 | 0.0 | 0.0 | 0.00 | 0.00 | 0.00 | 97 | 1012.2 |
| 20260507080408 | 35 | 229 | 0.0 | 0.0 | 0.00 | 0.00 | 0.00 | 98 | 1012.5 |
| 20260507075903 | 35 | 229 | 0.0 | 0.0 | 0.00 | 0.00 | 0.00 | 98 | 1012.3 |
| 20260507075359 | 35 | 229 | 0.0 | 0.0 | 0.00 | 0.00 | 0.00 | 97 | 1012.5 |
| 20260507074856 | 35 | 229 | 0.0 | 0.0 | 0.00 | 0.00 | 0.00 | 97 | 1012.6 |
| 20260507074353 | 35 | 229 | 0.0 | 0.0 | 0.00 | 0.00 | 0.00 | 96 | 1012.4 |
| 20260507073850 | 35 | 229 | 0.0 | 0.0 | 0.00 | 0.00 | 0.00 | 96 | 1012.7 |
| 20260507073347 | 35 | 229 | 0.0 | 0.0 | 0.00 | 0.00 | 0.00 | 96 | 1012.7 |
| 20260507072844 | 35 | 229 | 0.0 | 0.0 | 0.00 | 0.00 | 0.00 | 97 | 1012.7 |
| 20260507072341 | 36 | 229 | 1.0 | 1.0 | 0.00 | 0.00 | 0.00 | 96 | 1012.6 |
| 20260507071839 | 36 | 229 | 0.0 | 0.0 | 0.00 | 0.00 | 0.00 | 95 | 1012.6 |
| 20260507071336 | 36 | 229 | 0.0 | 0.0 | 0.00 | 0.00 | 0.00 | 92 | 1012.7 |
| 20260507070832 | 36 | 229 | 0.0 | 0.0 | 0.00 | 0.00 | 0.00 | 92 | 1012.7 |
| 20260507070329 | 36 | 229 | 0.0 | 0.0 | 0.00 | 0.00 | 0.00 | 93 | 1012.8 |
| 20260507065826 | 36 | 229 | 0.0 | 0.0 | 0.00 | 0.00 | 0.00 | 94 | 1012.8 |
| 20260507065322 | 36 | 229 | 0.0 | 0.0 | 0.00 | 0.00 | 0.00 | 94 | 1012.8 |
| 20260507064820 | 36 | 229 | 0.0 | 0.0 | 0.00 | 0.00 | 0.00 | 94 | 1012.8 |
| 20260507064318 | 36 | 229 | 0.0 | 0.0 | 0.00 | 0.00 | 0.00 | 94 | 1013.1 |
| 20260507063816 | 36 | 229 | 0.0 | 1.0 | 0.00 | 0.00 | 0.00 | 94 | 1012.9 |
| 20260507063312 | 36 | 229 | 1.0 | 1.0 | 0.00 | 0.00 | 0.00 | 94 | 1012.9 |
| 20260507062809 | 36 | 228 | 0.0 | 0.0 | 0.00 | 0.00 | 0.00 | 92 | 1013.2 |
| 20260507062306 | 36 | 228 | 0.0 | 0.0 | 0.00 | 0.00 | 0.00 | 91 | 1013.2 |
| 20260507061804 | 36 | 228 | 0.0 | 0.0 | 0.00 | 0.00 | 0.00 | 92 | 1013.3 |
| 20260507061302 | 36 | 228 | 0.0 | 0.0 | 0.00 | 0.00 | 0.00 | 92 | 1013.2 |
| 20260507060800 | 37 | 228 | 0.0 | 0.0 | 0.00 | 0.00 | 0.00 | 91 | 1013.1 |
| 20260507060256 | 36 | 229 | 0.0 | 0.0 | 0.00 | 0.00 | 0.00 | 91 | 1013.4 |
| 20260507055753 | 36 | 229 | 0.0 | 0.0 | 0.00 | 0.00 | 0.00 | 92 | 1013.1 |
| 20260507055248 | 37 | 229 | 0.0 | 0.0 | 0.00 | 0.00 | 0.00 | 92 | 1013.2 |
| 20260507054745 | 37 | 229 | 0.0 | 0.0 | 0.00 | 0.00 | 0.00 | 91 | 1013.5 |
| 20260507054241 | 37 | 229 | 0.0 | 0.0 | 0.00 | 0.00 | 0.00 | 92 | 1013.3 |
| 20260507053739 | 37 | 229 | 0.0 | 0.0 | 0.00 | 0.00 | 0.00 | 91 | 1013.3 |
| 20260507053236 | 38 | 229 | 0.0 | 0.0 | 0.00 | 0.00 | 0.00 | 90 | 1013.3 |
| 20260507052735 | 38 | 229 | 0.0 | 0.0 | 0.00 | 0.00 | 0.00 | 86 | 1013.4 |
| 20260507052231 | 38 | 228 | 0.0 | 0.0 | 0.00 | 0.00 | 0.00 | 82 | 1013.3 |
| 20260507051729 | 37 | 228 | 0.0 | 0.0 | 0.00 | 0.00 | 0.00 | 82 | 1013.5 |
| 20260507051226 | 38 | 228 | 0.0 | 0.0 | 0.00 | 0.00 | 0.00 | 83 | 1013.3 |
| 20260507050722 | 38 | 228 | 0.0 | 0.0 | 0.00 | 0.00 | 0.00 | 82 | 1013.5 |
| 20260507050220 | 38 | 229 | 0.0 | 0.0 | 0.00 | 0.00 | 0.00 | 85 | 1013.4 |
| 20260507045716 | 38 | 229 | 0.0 | 0.0 | 0.00 | 0.00 | 0.00 | 87 | 1013.6 |
| 20260507045212 | 38 | 229 | 0.0 | 0.0 | 0.00 | 0.00 | 0.00 | 86 | 1013.4 |
| 20260507044710 | 38 | 229 | 0.0 | 0.0 | 0.00 | 0.00 | 0.00 | 86 | 1013.4 |
| 20260507044206 | 38 | 229 | 0.0 | 0.0 | 0.00 | 0.00 | 0.00 | 86 | 1013.2 |
| 20260507043702 | 38 | 229 | 0.0 | 0.0 | 0.00 | 0.00 | 0.00 | 86 | 1013.5 |
| 20260507043159 | 39 | 228 | 0.0 | 0.0 | 0.00 | 0.00 | 0.00 | 86 | 1013.6 |
| 20260507042656 | 39 | 228 | 0.0 | 0.0 | 0.00 | 0.00 | 0.00 | 84 | 1013.3 |
| 20260507042150 | 39 | 228 | 1.0 | 1.0 | 0.00 | 0.00 | 0.00 | 82 | 1013.6 |
| 20260507041648 | 39 | 228 | 1.0 | 1.0 | 0.00 | 0.00 | 0.00 | 79 | 1013.6 |
| 20260507041144 | 39 | 228 | 1.0 | 1.0 | 0.00 | 0.00 | 0.00 | 76 | 1013.6 |
| 20260507040642 | 39 | 228 | 1.0 | 1.0 | 0.00 | 0.00 | 0.00 | 74 | 1013.6 |
| 20260507040138 | 39 | 228 | 1.0 | 1.0 | 0.00 | 0.00 | 0.00 | 74 | 1013.4 |
| 20260507035634 | 39 | 228 | 1.0 | 1.0 | 0.00 | 0.00 | 0.00 | 74 | 1013.7 |
| 20260507035130 | 39 | 228 | 1.0 | 1.0 | 0.00 | 0.00 | 0.00 | 76 | 1013.8 |
| 20260507034627 | 39 | 229 | 2.0 | 2.0 | 0.00 | 0.00 | 0.00 | 76 | 1013.7 |
| 20260507034125 | 39 | 233 | 2.0 | 2.0 | 0.00 | 0.00 | 0.00 | 78 | 1013.7 |
| 20260507033623 | 39 | 234 | 0.0 | 0.0 | 0.00 | 0.00 | 0.00 | 78 | 1013.4 |
| 20260507033120 | 39 | 234 | 0.0 | 0.0 | 0.00 | 0.00 | 0.00 | 78 | 1013.8 |
| 20260507032617 | 39 | 234 | 0.0 | 0.0 | 0.00 | 0.00 | 0.00 | 77 | 1014.1 |
| 20260507032113 | 39 | 234 | 0.0 | 0.0 | 0.00 | 0.00 | 0.00 | 75 | 1013.7 |
| 20260507031610 | 39 | 234 | 1.0 | 1.0 | 0.00 | 0.00 | 0.00 | 75 | 1013.7 |
| 20260507031106 | 39 | 234 | 0.0 | 0.0 | 0.00 | 0.00 | 0.00 | 76 | 1013.9 |
| 20260507030603 | 39 | 234 | 0.0 | 0.0 | 0.00 | 0.00 | 0.00 | 73 | 1013.8 |
| 20260507030101 | 39 | 234 | 0.0 | 0.0 | 0.00 | 0.00 | 0.00 | 73 | 1013.8 |
| 20260507025558 | 40 | 234 | 0.0 | 0.0 | 0.00 | 0.00 | 0.00 | 74 | 1013.9 |
| 20260507025055 | 40 | 234 | 0.0 | 1.0 | 0.00 | 0.00 | 0.00 | 73 | 1014.1 |
| 20260507024553 | 40 | 234 | 1.0 | 2.0 | 0.00 | 0.00 | 0.00 | 71 | 1013.8 |
| 20260507024050 | 40 | 235 | 1.0 | 2.0 | 0.00 | 0.00 | 0.00 | 72 | 1013.8 |
| 20260507023545 | 40 | 234 | 1.0 | 1.0 | 0.00 | 0.00 | 0.00 | 73 | 1014.1 |
| 20260507023043 | 40 | 234 | 1.0 | 1.0 | 0.00 | 0.00 | 0.00 | 74 | 1013.8 |
| 20260507022539 | 40 | 234 | 1.0 | 2.0 | 0.00 | 0.00 | 0.00 | 75 | 1013.6 |
| 20260507022035 | 40 | 234 | 1.0 | 2.0 | 0.00 | 0.00 | 0.00 | 75 | 1013.6 |
| 20260507021531 | 41 | 238 | 2.0 | 2.0 | 0.00 | 0.00 | 0.00 | 70 | 1013.5 |
| 20260507021028 | 40 | 289 | 0.0 | 0.0 | 0.00 | 0.00 | 0.00 | 69 | 1013.4 |
| 20260507020525 | 40 | 290 | 0.0 | 0.0 | 0.00 | 0.00 | 0.00 | 68 | 1013.7 |
| 20260507020022 | 41 | 292 | 0.0 | 0.0 | 0.00 | 0.00 | 0.00 | 66 | 1013.5 |
| 20260507015520 | 41 | 303 | 0.0 | 0.0 | 0.00 | 0.00 | 0.00 | 68 | 1013.5 |
| 20260507015017 | 41 | 304 | 0.0 | 0.0 | 0.00 | 0.00 | 0.00 | 67 | 1013.6 |
| 20260507014514 | 41 | 303 | 0.0 | 0.0 | 0.00 | 0.00 | 0.00 | 68 | 1013.5 |
| 20260507014010 | 41 | 304 | 0.0 | 0.0 | 0.00 | 0.00 | 0.00 | 67 | 1013.4 |
| 20260507013506 | 41 | 304 | 0.0 | 1.0 | 0.00 | 0.00 | 0.00 | 65 | 1013.4 |
| 20260507013004 | 41 | 329 | 0.0 | 0.0 | 0.00 | 0.00 | 0.00 | 66 | 1013.3 |
| 20260507012501 | 40 | 329 | 1.0 | 1.0 | 0.00 | 0.00 | 0.00 | 67 | 1013.4 |
| 20260507011957 | 41 | 332 | 0.0 | 1.0 | 0.00 | 0.00 | 0.00 | 66 | 1013.5 |
| 20260507011454 | 41 | 333 | 0.0 | 0.0 | 0.00 | 0.00 | 0.00 | 64 | 1013.3 |
| 20260507010950 | 41 | 8 | 0.0 | 1.0 | 0.00 | 0.00 | 0.00 | 63 | 1013.2 |
| 20260507010445 | 41 | 349 | 2.0 | 3.0 | 0.00 | 0.00 | 0.00 | 63 | 1013.3 |
| 20260507005942 | 42 | 5 | 0.0 | 0.0 | 0.00 | 0.00 | 0.00 | 63 | 1013.4 |
| 20260507005439 | 42 | 355 | 1.0 | 1.0 | 0.00 | 0.00 | 0.00 | 63 | 1013.4 |
| 20260507004935 | 42 | 354 | 2.0 | 3.0 | 0.00 | 0.00 | 0.00 | 62 | 1013.4 |
| 20260507004432 | 42 | 340 | 0.0 | 1.0 | 0.00 | 0.00 | 0.00 | 62 | 1013.3 |
| 20260507003930 | 42 | 334 | 0.0 | 2.0 | 0.00 | 0.00 | 0.00 | 63 | 1013.1 |
| 20260507003424 | 42 | 341 | 1.0 | 2.0 | 0.00 | 0.00 | 0.00 | 61 | 1013.2 |
| 20260507002920 | 42 | 352 | 3.0 | 3.0 | 0.00 | 0.00 | 0.00 | 60 | 1013.1 |
| 20260507002416 | 42 | 335 | 2.0 | 3.0 | 0.00 | 0.00 | 0.00 | 61 | 1013.1 |
| 20260507001914 | 42 | 341 | 2.0 | 3.0 | 0.00 | 0.00 | 0.00 | 61 | 1012.9 |
| 20260507001410 | 42 | 347 | 1.0 | 5.0 | 0.00 | 0.00 | 0.00 | 60 | 1013.1 |
| 20260507000908 | 42 | 350 | 2.0 | 5.0 | 0.00 | 0.00 | 0.00 | 60 | 1013.1 |
| 20260507000405 | 42 | 12 | 3.0 | 5.0 | 0.00 | 0.00 | 0.00 | 60 | 1013.1 |
| 20260506235859 | 43 | 326 | 4.0 | 7.0 | 0.00 | 0.00 | 0.00 | 59 | 1013.0 |
| 20260506235356 | 43 | 331 | 3.0 | 3.0 | 0.00 | 0.00 | 0.00 | 59 | 1012.9 |
| 20260506234852 | 43 | 293 | 1.0 | 5.0 | 0.00 | 0.00 | 0.00 | 60 | 1013.1 |
| 20260506234350 | 43 | 4 | 1.0 | 5.0 | 0.00 | 0.00 | 0.00 | 61 | 1012.9 |
| 20260506233847 | 43 | 343 | 2.0 | 5.0 | 0.00 | 0.00 | 0.00 | 59 | 1013.0 |
| 20260506233343 | 43 | 309 | 2.0 | 5.0 | 0.00 | 0.00 | 0.00 | 60 | 1013.0 |
| 20260506232841 | 43 | 332 | 3.0 | 6.0 | 0.00 | 0.00 | 0.00 | 60 | 1013.0 |
| 20260506232336 | 43 | 297 | 1.0 | 3.0 | 0.00 | 0.00 | 0.00 | 60 | 1012.7 |
| 20260506231833 | 44 | 343 | 1.0 | 6.0 | 0.00 | 0.00 | 0.00 | 62 | 1012.7 |
| 20260506231331 | 43 | 303 | 2.0 | 3.0 | 0.00 | 0.00 | 0.00 | 59 | 1013.0 |
| 20260506230828 | 44 | 333 | 1.0 | 3.0 | 0.00 | 0.00 | 0.00 | 60 | 1012.7 |
| 20260506230324 | 44 | 316 | 1.0 | 2.0 | 0.00 | 0.00 | 0.00 | 60 | 1013.0 |
| 20260506225820 | 44 | 13 | 2.0 | 2.0 | 0.00 | 0.00 | 0.00 | 62 | 1013.1 |
| 20260506225318 | 44 | 340 | 2.0 | 6.0 | 0.00 | 0.00 | 0.00 | 59 | 1013.1 |
| 20260506224815 | 44 | 267 | 2.0 | 6.0 | 0.00 | 0.00 | 0.00 | 59 | 1013.2 |
| 20260506224312 | 44 | 328 | 2.0 | 5.0 | 0.00 | 0.00 | 0.00 | 61 | 1013.1 |
| 20260506223808 | 44 | 304 | 2.0 | 3.0 | 0.00 | 0.00 | 0.00 | 60 | 1013.0 |
| 20260506223303 | 44 | 269 | 5.0 | 7.0 | 0.00 | 0.00 | 0.00 | 60 | 1013.1 |
| 20260506222801 | 44 | 299 | 2.0 | 3.0 | 0.00 | 0.00 | 0.00 | 60 | 1013.0 |
| 20260506222256 | 44 | 298 | 3.0 | 5.0 | 0.00 | 0.00 | 0.00 | 61 | 1013.2 |
| 20260506221754 | 44 | 270 | 5.0 | 6.0 | 0.00 | 0.00 | 0.00 | 61 | 1013.2 |
| 20260506221252 | 44 | 337 | 8.0 | 9.0 | 0.00 | 0.00 | 0.00 | 59 | 1013.0 |
| 20260506220749 | 44 | 276 | 5.0 | 7.0 | 0.00 | 0.00 | 0.00 | 59 | 1013.2 |
| 20260506220244 | 44 | 322 | 5.0 | 8.0 | 0.00 | 0.00 | 0.00 | 58 | 1012.9 |
| 20260506215741 | 44 | 274 | 4.0 | 8.0 | 0.00 | 0.00 | 0.00 | 59 | 1013.0 |
| 20260506215237 | 44 | 259 | 5.0 | 8.0 | 0.00 | 0.00 | 0.00 | 58 | 1012.9 |
| 20260506214733 | 44 | 333 | 3.0 | 8.0 | 0.00 | 0.00 | 0.00 | 58 | 1012.8 |
| 20260506214230 | 44 | 273 | 7.0 | 8.0 | 0.00 | 0.00 | 0.00 | 58 | 1012.9 |
| 20260506213728 | 45 | 289 | 5.0 | 8.0 | 0.00 | 0.00 | 0.00 | 60 | 1013.0 |
| 20260506213225 | 45 | 270 | 9.0 | 10.0 | 0.00 | 0.00 | 0.00 | 58 | 1012.8 |
| 20260506212723 | 45 | 260 | 9.0 | 11.0 | 0.00 | 0.00 | 0.00 | 57 | 1012.7 |
| 20260506212218 | 45 | 312 | 6.0 | 8.0 | 0.00 | 0.00 | 0.00 | 58 | 1013.0 |
| 20260506211714 | 45 | 272 | 5.0 | 8.0 | 0.00 | 0.00 | 0.00 | 59 | 1012.8 |
| 20260506211210 | 46 | 286 | 5.0 | 7.0 | 0.00 | 0.00 | 0.00 | 60 | 1012.9 |
| 20260506210707 | 45 | 255 | 3.0 | 9.0 | 0.00 | 0.00 | 0.00 | 58 | 1013.0 |
| 20260506210204 | 45 | 342 | 9.0 | 10.0 | 0.00 | 0.00 | 0.00 | 56 | 1012.9 |
| 20260506205701 | 45 | 329 | 6.0 | 10.0 | 0.00 | 0.00 | 0.00 | 57 | 1012.8 |
| 20260506205156 | 46 | 244 | 6.0 | 10.0 | 0.00 | 0.00 | 0.00 | 57 | 1012.7 |
| 20260506204654 | 46 | 232 | 4.0 | 8.0 | 0.00 | 0.00 | 0.00 | 58 | 1012.9 |
| 20260506204150 | 46 | 284 | 4.0 | 9.0 | 0.00 | 0.00 | 0.00 | 58 | 1012.8 |
| 20260506203649 | 45 | 273 | 5.0 | 7.0 | 0.00 | 0.00 | 0.00 | 58 | 1012.8 |
| 20260506203146 | 46 | 272 | 6.0 | 8.0 | 0.00 | 0.00 | 0.00 | 57 | 1012.8 |
| 20260506202644 | 46 | 293 | 3.0 | 9.0 | 0.00 | 0.00 | 0.00 | 57 | 1013.0 |
| 20260506202139 | 46 | 341 | 6.0 | 9.0 | 0.00 | 0.00 | 0.00 | 55 | 1012.8 |
| 20260506201636 | 46 | 308 | 4.0 | 7.0 | 0.00 | 0.00 | 0.00 | 57 | 1012.6 |
| 20260506201133 | 46 | 309 | 4.0 | 9.0 | 0.00 | 0.00 | 0.00 | 58 | 1013.0 |
| 20260506200629 | 46 | 265 | 6.0 | 9.0 | 0.00 | 0.00 | 0.00 | 56 | 1012.8 |
| 20260506200126 | 46 | 216 | 8.0 | 9.0 | 0.00 | 0.00 | 0.00 | 57 | 1012.9 |
| 20260506195623 | 47 | 262 | 9.0 | 9.0 | 0.00 | 0.00 | 0.00 | 56 | 1012.9 |